Time;durP1;ratioP1;P1;durP2;ratioP2;P2;SDS_P1;SDS_P2;PMS_P1;PMS_P2;Temp;Humidity;BMP_temperature;BMP_pressure;BME280_temperature;BME280_humidity;BME280_pressure;Samples;Min_cycle;Max_cycle;Signal;HPM_P1;HPM_P2
2022/06/10 20:41:41;;;;;;;6.57;5.27;;;;;;;16.17;98.11;93982.31;2614274;47;20195;-77
2022/06/10 20:44:24;;;;;;;5.13;4.73;;;;;;;14.08;97.91;93727.94;2616134;46;20153;-77
2022/06/10 20:50:20;;;;;;;;;;;;;;;;;;;;;
2022/06/10 20:52:56;;;;;;;8.03;6.83;;;;;;;13.85;99.02;93715.75;2616131;54;20236;-77
2022/06/10 20:58:27;;;;;;;8.47;5.77;;;;;;;14.05;100.00;93726.53;2616193;47;20672;-77
2022/06/10 21:01:09;;;;;;;7.57;5.70;;;;;;;14.90;100.00;93842.94;2615131;54;20157;-76
2022/06/10 21:09:28;;;;;;;8.90;6.33;;;;;;;15.72;100.00;93963.69;2614932;47;20153;-76
2022/06/10 21:12:05;;;;;;;6.17;5.37;;;;;;;15.25;100.00;93870.13;2615182;47;20180;-80
2022/06/10 21:14:56;;;;;;;9.27;6.73;;;;;;;14.68;98.91;93760.22;2615118;54;20244;-81
2022/06/10 21:17:39;;;;;;;8.33;6.10;;;;;;;15.80;97.38;93875.22;2615062;54;20214;-76
2022/06/10 21:20:19;;;;;;;13.97;5.83;;;;;;;15.73;96.06;93859.50;2615649;54;20196;-81
2022/06/10 21:23:03;;;;;;;7.33;5.47;;;;;;;16.28;94.93;93883.72;2616011;54;20187;-81
2022/06/10 21:25:35;;;;;;;7.87;6.30;;;;;;;17.17;94.11;94017.25;2616096;47;20183;-81
2022/06/10 21:28:18;;;;;;;6.13;5.10;;;;;;;16.37;93.62;93892.31;2615836;54;20149;-81
2022/06/10 21:30:59;;;;;;;8.53;6.70;;;;;;;15.39;92.92;93737.50;2615812;54;20183;-81
2022/06/10 21:33:39;;;;;;;5.90;5.37;;;;;;;16.12;92.69;93871.63;2615837;54;20168;-81
2022/06/10 21:36:20;;;;;;;8.27;5.50;;;;;;;15.85;95.32;93905.19;2616026;47;20145;-81
2022/06/10 21:39:09;;;;;;;7.53;5.70;;;;;;;16.57;96.51;93963.72;2615646;54;20156;-81
2022/06/10 21:44:11;;;;;;;7.23;5.13;;;;;;;16.16;94.73;93903.75;2615748;47;20149;-81
2022/06/10 21:44:41;;;;;;;10.73;6.13;;;;;;;15.55;95.50;93809.56;2615891;46;20199;-81
2022/06/10 21:47:20;;;;;;;6.27;5.37;;;;;;;15.02;94.33;93753.88;2615482;47;20677;-81
2022/06/10 21:50:03;;;;;;;;;;;;;;;;;;;;;
2022/06/10 21:52:58;;;;;;;6.07;5.47;;;;;;;15.98;95.06;93841.66;2615996;47;21137;-77
2022/06/10 21:55:30;;;;;;;5.37;4.97;;;;;;;16.31;92.77;93825.16;2615571;47;20177;-78
2022/06/10 21:58:09;;;;;;;7.43;5.53;;;;;;;17.57;91.53;94002.06;2615770;46;20164;-77
2022/06/10 22:00:52;;;;;;;7.57;5.43;;;;;;;15.64;91.33;93718.94;2615781;46;20184;-80
2022/06/10 22:03:40;;;;;;;8.83;6.27;;;;;;;15.22;91.79;93746.03;2615684;54;20149;-81
2022/06/10 22:06:21;;;;;;;8.37;5.67;;;;;;;15.29;94.97;93823.78;2615769;39;20558;-81
2022/06/10 22:09:00;;;;;;;6.83;6.00;;;;;;;14.65;97.08;93765.22;2615393;47;20914;-80
2022/06/10 22:11:36;;;;;;;8.10;6.97;;;;;;;15.64;97.40;93875.91;2616161;54;20153;-80
2022/06/10 22:14:10;;;;;;;9.77;6.40;;;;;;;14.13;98.75;93709.47;2615631;54;20180;-80
2022/06/10 22:16:44;;;;;;;7.23;5.23;;;;;;;15.71;100.00;93945.88;2615532;54;20191;-76
2022/06/10 22:19:25;;;;;;;6.60;5.97;;;;;;;14.01;100.00;93709.44;2615767;54;20263;-77
2022/06/10 22:21:58;;;;;;;8.80;6.20;;;;;;;15.13;100.00;93838.75;2615765;54;20164;-80
2022/06/10 22:24:29;;;;;;;8.73;5.63;;;;;;;16.18;100.00;93932.31;2615872;54;20165;-80
2022/06/10 22:27:05;;;;;;;10.63;6.27;;;;;;;15.83;100.00;93839.53;2615873;39;20613;-80
2022/06/10 22:29:34;;;;;;;10.83;6.70;;;;;;;16.48;97.12;93962.31;2615876;54;20152;-80
2022/06/10 22:32:07;;;;;;;7.83;6.10;;;;;;;14.50;99.19;93718.16;2615694;54;20248;-80
2022/06/10 22:34:51;;;;;;;10.27;7.30;;;;;;;16.63;99.09;93975.19;2615787;54;20755;-80
2022/06/10 22:37:25;;;;;;;8.73;6.60;;;;;;;14.53;97.23;93697.50;2615497;54;20255;-80
2022/06/10 22:39:54;;;;;;;9.17;6.73;;;;;;;14.63;97.26;93702.50;2615846;54;20748;-77
2022/06/10 22:42:25;;;;;;;9.00;6.10;;;;;;;16.07;97.58;93876.63;2615416;47;20165;-76
2022/06/10 22:44:56;;;;;;;6.17;5.40;;;;;;;15.75;96.30;93765.28;2615870;54;20165;-80
2022/06/10 22:47:32;;;;;;;6.73;5.37;;;;;;;17.20;91.85;93854.84;2615924;54;21591;-80
2022/06/10 22:50:08;;;;;;;8.17;6.90;;;;;;;18.35;88.82;93962.19;2615836;54;20149;-76
2022/06/10 22:52:44;;;;;;;4.37;3.97;;;;;;;18.50;85.04;93922.63;2615648;47;20187;-76
2022/06/10 22:55:20;;;;;;;6.50;5.20;;;;;;;19.02;83.26;93924.97;2616050;54;20149;-77
2022/06/10 22:57:51;;;;;;;8.30;5.93;;;;;;;19.20;82.70;93935.53;2616064;39;20618;-77
2022/06/10 23:00:24;;;;;;;9.45;6.53;;;;;;;17.85;82.80;93779.97;2616190;54;20164;-77
2022/06/10 23:03:06;;;;;;;4.97;4.57;;;;;;;17.62;83.17;93711.41;2615784;54;20168;-77
2022/06/10 23:08:25;;;;;;;6.55;4.65;;;;;;;18.75;80.46;93852.84;2615396;47;20156;-77
2022/06/10 23:10:55;;;;;;;5.43;4.90;;;;;;;19.05;82.12;93920.63;2616239;54;21221;-76
2022/06/10 23:13:29;;;;;;;6.28;4.97;;;;;;;18.89;81.21;93872.03;2616627;54;20175;-77
2022/06/10 23:16:03;;;;;;;5.28;4.78;;;;;;;18.20;81.88;93821.16;2615936;47;20156;-80
2022/06/10 23:18:41;;;;;;;7.90;4.53;;;;;;;17.28;83.50;93726.03;2616613;47;20716;-80
2022/06/10 23:21:22;;;;;;;4.43;3.85;;;;;;;19.31;82.04;93977.03;2616010;54;20171;-77
2022/06/10 23:23:51;;;;;;;4.45;4.10;;;;;;;18.85;83.28;93958.19;2616320;54;20187;-76
2022/06/10 23:26:26;;;;;;;4.77;4.37;;;;;;;16.85;84.50;93705.59;2616407;39;20227;-76
2022/06/10 23:28:56;;;;;;;5.73;4.93;;;;;;;18.27;85.18;93908.50;2616329;54;20152;-77
2022/06/10 23:31:30;;;;;;;4.90;4.47;;;;;;;17.92;85.00;93867.25;2615812;47;20160;-80
2022/06/10 23:34:05;;;;;;;7.43;5.60;;;;;;;16.90;85.20;93756.31;2616084;54;20152;-80
2022/06/10 23:36:45;;;;;;;5.47;4.73;;;;;;;17.24;86.45;93840.50;2615837;47;20148;-76
2022/06/10 23:39:16;;;;;;;4.47;3.58;;;;;;;17.25;86.21;93770.38;2616269;54;20244;-76
